sensor_id;sensor_type;location;lat;lon;timestamp;pressure;altitude;pressure_sealevel;temperature;humidity
40908;BME280;51055;59.436;24.778;2023-08-07T00:00:15;100392.53;;;22.44;100.00
40908;BME280;51055;59.436;24.778;2023-08-07T00:02:43;100385.25;;;22.44;100.00
40908;BME280;51055;59.436;24.778;2023-08-07T00:05:11;100382.75;;;22.43;100.00
40908;BME280;51055;59.436;24.778;2023-08-07T00:07:38;100377.56;;;22.41;100.00
40908;BME280;51055;59.436;24.778;2023-08-07T00:10:07;100379.44;;;22.41;100.00
40908;BME280;51055;59.436;24.778;2023-08-07T00:12:35;100378.78;;;22.39;100.00
40908;BME280;51055;59.436;24.778;2023-08-07T00:15:03;100382.56;;;22.38;100.00
40908;BME280;51055;59.436;24.778;2023-08-07T00:17:31;100386.91;;;22.39;100.00
40908;BME280;51055;59.436;24.778;2023-08-07T00:19:59;100381.72;;;22.37;100.00
40908;BME280;51055;59.436;24.778;2023-08-07T00:22:26;100381.91;;;22.36;100.00
40908;BME280;51055;59.436;24.778;2023-08-07T00:24:54;100370.25;;;22.35;100.00
40908;BME280;51055;59.436;24.778;2023-08-07T00:27:22;100371.31;;;22.34;100.00
40908;BME280;51055;59.436;24.778;2023-08-07T00:29:50;100368.81;;;22.32;100.00
40908;BME280;51055;59.436;24.778;2023-08-07T00:32:17;100363.22;;;22.34;100.00
40908;BME280;51055;59.436;24.778;2023-08-07T00:34:45;100359.88;;;22.32;100.00
40908;BME280;51055;59.436;24.778;2023-08-07T00:37:12;100356.13;;;22.33;100.00
40908;BME280;51055;59.436;24.778;2023-08-07T00:39:40;100355.28;;;22.32;100.00
40908;BME280;51055;59.436;24.778;2023-08-07T00:42:07;100358.00;;;22.32;100.00
40908;BME280;51055;59.436;24.778;2023-08-07T00:44:35;100353.66;;;22.31;100.00
40908;BME280;51055;59.436;24.778;2023-08-07T00:47:03;100351.75;;;22.32;100.00
40908;BME280;51055;59.436;24.778;2023-08-07T00:49:30;100353.25;;;22.35;100.00
40908;BME280;51055;59.436;24.778;2023-08-07T00:51:58;100357.38;;;22.37;100.00
40908;BME280;51055;59.436;24.778;2023-08-07T00:54:26;100345.56;;;22.38;100.00
40908;BME280;51055;59.436;24.778;2023-08-07T00:56:53;100338.66;;;22.36;100.00
40908;BME280;51055;59.436;24.778;2023-08-07T00:59:21;100335.78;;;22.37;100.00
40908;BME280;51055;59.436;24.778;2023-08-07T01:01:49;100341.19;;;22.37;100.00
40908;BME280;51055;59.436;24.778;2023-08-07T01:04:17;100333.91;;;22.38;100.00
40908;BME280;51055;59.436;24.778;2023-08-07T01:06:45;100330.16;;;22.39;100.00
40908;BME280;51055;59.436;24.778;2023-08-07T01:09:13;100335.56;;;22.39;100.00
40908;BME280;51055;59.436;24.778;2023-08-07T01:11:48;100327.84;;;22.36;100.00
40908;BME280;51055;59.436;24.778;2023-08-07T01:14:33;100332.84;;;22.39;100.00
40908;BME280;51055;59.436;24.778;2023-08-07T01:17:09;100332.66;;;22.40;100.00
40908;BME280;51055;59.436;24.778;2023-08-07T01:19:38;100330.78;;;22.41;100.00
40908;BME280;51055;59.436;24.778;2023-08-07T01:22:13;100328.28;;;22.39;100.00
40908;BME280;51055;59.436;24.778;2023-08-07T01:24:44;100327.44;;;22.39;100.00
40908;BME280;51055;59.436;24.778;2023-08-07T01:29:56;100330.38;;;22.37;100.00
40908;BME280;51055;59.436;24.778;2023-08-07T01:32:34;100317.88;;;22.36;100.00
40908;BME280;51055;59.436;24.778;2023-08-07T01:35:05;100318.72;;;22.37;100.00
40908;BME280;51055;59.436;24.778;2023-08-07T01:37:35;100312.47;;;22.36;100.00
40908;BME280;51055;59.436;24.778;2023-08-07T01:40:05;100316.63;;;22.39;100.00
40908;BME280;51055;59.436;24.778;2023-08-07T01:42:35;100315.81;;;22.38;100.00
40908;BME280;51055;59.436;24.778;2023-08-07T01:45:04;100305.81;;;22.39;100.00
40908;BME280;51055;59.436;24.778;2023-08-07T01:47:32;100307.06;;;22.36;100.00
40908;BME280;51055;59.436;24.778;2023-08-07T01:50:00;100313.31;;;22.37;100.00
40908;BME280;51055;59.436;24.778;2023-08-07T01:52:28;100308.75;;;22.37;100.00
40908;BME280;51055;59.436;24.778;2023-08-07T01:54:55;100297.28;;;22.35;100.00
40908;BME280;51055;59.436;24.778;2023-08-07T01:57:23;100299.38;;;22.33;100.00
40908;BME280;51055;59.436;24.778;2023-08-07T01:59:51;100298.78;;;22.31;100.00
40908;BME280;51055;59.436;24.778;2023-08-07T02:02:19;100298.34;;;22.27;100.00
40908;BME280;51055;59.436;24.778;2023-08-07T02:04:46;100298.78;;;22.24;100.00
40908;BME280;51055;59.436;24.778;2023-08-07T02:07:14;100295.44;;;22.22;100.00
40908;BME280;51055;59.436;24.778;2023-08-07T02:09:42;100292.94;;;22.21;100.00
40908;BME280;51055;59.436;24.778;2023-08-07T02:12:10;100289.41;;;22.20;100.00
40908;BME280;51055;59.436;24.778;2023-08-07T02:14:37;100289.19;;;22.22;100.00
40908;BME280;51055;59.436;24.778;2023-08-07T02:17:05;100277.78;;;22.20;100.00
40908;BME280;51055;59.436;24.778;2023-08-07T02:19:33;100278.00;;;22.18;100.00
40908;BME280;51055;59.436;24.778;2023-08-07T02:22:01;100279.88;;;22.18;100.00
40908;BME280;51055;59.436;24.778;2023-08-07T02:24:28;100274.66;;;22.16;100.00
40908;BME280;51055;59.436;24.778;2023-08-07T02:26:56;100273.22;;;22.14;100.00
40908;BME280;51055;59.436;24.778;2023-08-07T02:29:24;100273.41;;;22.12;100.00
40908;BME280;51055;59.436;24.778;2023-08-07T02:31:51;100272.59;;;22.12;100.00
40908;BME280;51055;59.436;24.778;2023-08-07T02:34:19;100270.28;;;22.09;100.00
40908;BME280;51055;59.436;24.778;2023-08-07T02:36:47;100260.13;;;22.11;100.00
40908;BME280;51055;59.436;24.778;2023-08-07T02:39:14;100262.81;;;22.11;100.00
40908;BME280;51055;59.436;24.778;2023-08-07T02:41:42;100256.78;;;22.09;100.00
40908;BME280;51055;59.436;24.778;2023-08-07T02:44:10;100262.59;;;22.12;100.00
40908;BME280;51055;59.436;24.778;2023-08-07T02:46:38;100261.97;;;22.10;100.00
40908;BME280;51055;59.436;24.778;2023-08-07T02:49:06;100257.84;;;22.08;100.00
40908;BME280;51055;59.436;24.778;2023-08-07T02:51:33;100243.06;;;22.10;100.00
40908;BME280;51055;59.436;24.778;2023-08-07T02:54:01;100248.28;;;22.12;100.00
40908;BME280;51055;59.436;24.778;2023-08-07T02:56:29;100248.28;;;22.12;100.00
40908;BME280;51055;59.436;24.778;2023-08-07T02:58:57;100234.34;;;22.08;100.00
40908;BME280;51055;59.436;24.778;2023-08-07T03:01:26;100247.63;;;22.10;100.00
40908;BME280;51055;59.436;24.778;2023-08-07T03:03:55;100252.63;;;22.13;100.00
40908;BME280;51055;59.436;24.778;2023-08-07T03:06:23;100240.56;;;22.09;100.00
40908;BME280;51055;59.436;24.778;2023-08-07T03:08:50;100234.97;;;22.10;100.00
40908;BME280;51055;59.436;24.778;2023-08-07T03:11:18;100228.72;;;22.10;100.00
40908;BME280;51055;59.436;24.778;2023-08-07T03:13:46;100224.16;;;22.10;100.00
40908;BME280;51055;59.436;24.778;2023-08-07T03:16:14;100224.78;;;22.12;100.00
40908;BME280;51055;59.436;24.778;2023-08-07T03:18:42;100223.75;;;22.13;100.00
40908;BME280;51055;59.436;24.778;2023-08-07T03:21:09;100229.75;;;22.15;100.00
40908;BME280;51055;59.436;24.778;2023-08-07T03:23:37;100225.19;;;22.16;100.00
40908;BME280;51055;59.436;24.778;2023-08-07T03:26:10;100225.41;;;22.14;100.00
40908;BME280;51055;59.436;24.778;2023-08-07T03:28:45;100223.56;;;22.15;100.00
40908;BME280;51055;59.436;24.778;2023-08-07T03:31:17;100223.13;;;22.18;100.00
40908;BME280;51055;59.436;24.778;2023-08-07T03:33:45;100221.88;;;22.20;100.00
40908;BME280;51055;59.436;24.778;2023-08-07T03:36:12;100221.25;;;22.25;100.00
40908;BME280;51055;59.436;24.778;2023-08-07T03:38:40;100217.31;;;22.27;100.00
40908;BME280;51055;59.436;24.778;2023-08-07T03:41:08;100218.56;;;22.31;100.00
40908;BME280;51055;59.436;24.778;2023-08-07T03:43:35;100217.72;;;22.31;100.00
40908;BME280;51055;59.436;24.778;2023-08-07T03:46:03;100217.28;;;22.34;100.00
40908;BME280;51055;59.436;24.778;2023-08-07T03:48:31;100216.03;;;22.37;100.00
40908;BME280;51055;59.436;24.778;2023-08-07T03:51:06;100227.44;;;22.39;100.00
40908;BME280;51055;59.436;24.778;2023-08-07T03:53:37;100218.72;;;22.43;100.00
40908;BME280;51055;59.436;24.778;2023-08-07T03:56:05;100221.00;;;22.46;100.00
40908;BME280;51055;59.436;24.778;2023-08-07T03:58:33;100224.13;;;22.50;100.00
40908;BME280;51055;59.436;24.778;2023-08-07T04:01:01;100223.69;;;22.53;100.00
40908;BME280;51055;59.436;24.778;2023-08-07T04:03:29;100228.69;;;22.56;100.00
40908;BME280;51055;59.436;24.778;2023-08-07T04:05:56;100224.09;;;22.56;100.00
40908;BME280;51055;59.436;24.778;2023-08-07T04:08:24;100229.28;;;22.58;100.00
40908;BME280;51055;59.436;24.778;2023-08-07T04:11:02;100224.69;;;22.65;100.00
40908;BME280;51055;59.436;24.778;2023-08-07T04:13:30;100226.38;;;22.72;100.00
40908;BME280;51055;59.436;24.778;2023-08-07T04:15:58;100227.66;;;22.70;100.00
40908;BME280;51055;59.436;24.778;2023-08-07T04:18:28;100222.66;;;22.73;100.00
40908;BME280;51055;59.436;24.778;2023-08-07T04:20:56;100223.69;;;22.72;100.00
40908;BME280;51055;59.436;24.778;2023-08-07T04:23:24;100224.28;;;22.74;100.00
40908;BME280;51055;59.436;24.778;2023-08-07T04:25:53;100224.50;;;22.79;100.00
40908;BME280;51055;59.436;24.778;2023-08-07T04:28:21;100224.47;;;22.86;100.00
40908;BME280;51055;59.436;24.778;2023-08-07T04:30:50;100214.91;;;22.90;100.00
40908;BME280;51055;59.436;24.778;2023-08-07T04:33:19;100218.38;;;22.97;100.00
40908;BME280;51055;59.436;24.778;2023-08-07T04:35:47;100214.63;;;22.98;100.00
40908;BME280;51055;59.436;24.778;2023-08-07T04:38:16;100214.88;;;22.97;100.00
40908;BME280;51055;59.436;24.778;2023-08-07T04:40:48;100204.66;;;22.99;100.00
40908;BME280;51055;59.436;24.778;2023-08-07T04:43:17;100212.94;;;23.04;100.00
40908;BME280;51055;59.436;24.778;2023-08-07T04:45:46;100209.59;;;23.08;100.00
40908;BME280;51055;59.436;24.778;2023-08-07T04:48:14;100206.25;;;23.13;100.00
40908;BME280;51055;59.436;24.778;2023-08-07T04:50:42;100205.78;;;23.22;100.00
40908;BME280;51055;59.436;24.778;2023-08-07T04:53:10;100206.41;;;23.24;100.00
40908;BME280;51055;59.436;24.778;2023-08-07T04:55:38;100194.69;;;23.30;100.00
40908;BME280;51055;59.436;24.778;2023-08-07T04:58:06;100204.66;;;23.36;100.00
40908;BME280;51055;59.436;24.778;2023-08-07T05:00:33;100200.31;;;23.35;100.00
40908;BME280;51055;59.436;24.778;2023-08-07T05:03:01;100203.56;;;23.51;100.00
40908;BME280;51055;59.436;24.778;2023-08-07T05:05:29;100206.88;;;23.53;100.00
40908;BME280;51055;59.436;24.778;2023-08-07T05:07:58;100193.03;;;23.43;100.00
40908;BME280;51055;59.436;24.778;2023-08-07T05:10:26;100191.88;;;23.57;100.00
40908;BME280;51055;59.436;24.778;2023-08-07T05:12:54;100192.94;;;23.56;100.00
40908;BME280;51055;59.436;24.778;2023-08-07T05:15:24;100190.19;;;23.62;100.00
40908;BME280;51055;59.436;24.778;2023-08-07T05:17:52;100189.34;;;23.62;100.00
40908;BME280;51055;59.436;24.778;2023-08-07T05:20:20;100185.72;;;23.74;100.00
40908;BME280;51055;59.436;24.778;2023-08-07T05:22:47;100187.47;;;23.87;100.00
40908;BME280;51055;59.436;24.778;2023-08-07T05:25:16;100186.81;;;23.92;100.00
40908;BME280;51055;59.436;24.778;2023-08-07T05:27:45;100187.63;;;23.92;100.00
40908;BME280;51055;59.436;24.778;2023-08-07T05:30:13;100186.91;;;24.03;100.00
40908;BME280;51055;59.436;24.778;2023-08-07T05:32:41;100183.66;;;24.19;99.44
40908;BME280;51055;59.436;24.778;2023-08-07T05:35:09;100175.78;;;24.36;99.58
40908;BME280;51055;59.436;24.778;2023-08-07T05:37:37;100174.75;;;24.37;97.99
40908;BME280;51055;59.436;24.778;2023-08-07T05:40:06;100175.13;;;24.59;97.43
40908;BME280;51055;59.436;24.778;2023-08-07T05:42:34;100172.50;;;24.70;96.18
40908;BME280;51055;59.436;24.778;2023-08-07T05:45:03;100180.84;;;24.87;93.58
40908;BME280;51055;59.436;24.778;2023-08-07T05:47:32;100169.94;;;24.94;93.21
40908;BME280;51055;59.436;24.778;2023-08-07T05:50:00;100168.50;;;25.09;93.54
40908;BME280;51055;59.436;24.778;2023-08-07T05:52:28;100166.81;;;25.08;92.82
40908;BME280;51055;59.436;24.778;2023-08-07T05:54:55;100166.44;;;25.05;93.46
40908;BME280;51055;59.436;24.778;2023-08-07T05:57:23;100158.25;;;25.23;91.59
40908;BME280;51055;59.436;24.778;2023-08-07T05:59:50;100146.72;;;25.27;91.56
40908;BME280;51055;59.436;24.778;2023-08-07T06:02:18;100139.19;;;25.41;90.33
40908;BME280;51055;59.436;24.778;2023-08-07T06:04:47;100138.44;;;25.52;89.66
40908;BME280;51055;59.436;24.778;2023-08-07T06:07:16;100139.72;;;25.50;89.29
40908;BME280;51055;59.436;24.778;2023-08-07T06:09:43;100137.41;;;25.65;87.96
40908;BME280;51055;59.436;24.778;2023-08-07T06:12:11;100126.78;;;25.75;87.26
40908;BME280;51055;59.436;24.778;2023-08-07T06:14:39;100121.72;;;25.78;87.78
40908;BME280;51055;59.436;24.778;2023-08-07T06:17:07;100114.28;;;25.97;87.22
40908;BME280;51055;59.436;24.778;2023-08-07T06:19:34;100116.16;;;25.97;87.25
40908;BME280;51055;59.436;24.778;2023-08-07T06:22:02;100108.25;;;26.07;85.90
40908;BME280;51055;59.436;24.778;2023-08-07T06:24:29;100103.38;;;26.09;85.55
40908;BME280;51055;59.436;24.778;2023-08-07T06:26:57;100106.47;;;26.24;83.41
40908;BME280;51055;59.436;24.778;2023-08-07T06:29:25;100105.00;;;26.45;81.97
40908;BME280;51055;59.436;24.778;2023-08-07T06:31:52;100099.91;;;26.48;82.31
40908;BME280;51055;59.436;24.778;2023-08-07T06:34:20;100100.72;;;26.60;81.81
40908;BME280;51055;59.436;24.778;2023-08-07T06:36:47;100100.00;;;26.65;81.58
40908;BME280;51055;59.436;24.778;2023-08-07T06:39:15;100098.03;;;26.77;83.18
40908;BME280;51055;59.436;24.778;2023-08-07T06:41:42;100092.19;;;26.97;81.73
40908;BME280;51055;59.436;24.778;2023-08-07T06:44:10;100080.50;;;26.96;80.69
40908;BME280;51055;59.436;24.778;2023-08-07T06:46:37;100084.06;;;27.13;79.24
40908;BME280;51055;59.436;24.778;2023-08-07T06:49:05;100087.25;;;27.22;77.68
40908;BME280;51055;59.436;24.778;2023-08-07T06:51:32;100076.50;;;27.15;76.84
40908;BME280;51055;59.436;24.778;2023-08-07T06:54:00;100080.53;;;27.29;77.75
40908;BME280;51055;59.436;24.778;2023-08-07T06:56:28;100076.03;;;27.35;77.83
40908;BME280;51055;59.436;24.778;2023-08-07T06:58:56;100070.84;;;27.50;77.78
40908;BME280;51055;59.436;24.778;2023-08-07T07:01:23;100063.75;;;27.66;76.03
40908;BME280;51055;59.436;24.778;2023-08-07T07:03:51;100071.00;;;27.77;76.23
40908;BME280;51055;59.436;24.778;2023-08-07T07:06:20;100065.78;;;27.92;74.29
40908;BME280;51055;59.436;24.778;2023-08-07T07:08:48;100081.22;;;28.03;74.00
40908;BME280;51055;59.436;24.778;2023-08-07T07:11:16;100075.94;;;28.13;73.67
40908;BME280;51055;59.436;24.778;2023-08-07T07:13:46;100075.81;;;28.25;73.02
40908;BME280;51055;59.436;24.778;2023-08-07T07:16:14;100069.97;;;28.38;72.10
40908;BME280;51055;59.436;24.778;2023-08-07T07:18:41;100068.34;;;28.37;72.30
40908;BME280;51055;59.436;24.778;2023-08-07T07:21:09;100072.28;;;28.46;72.02
40908;BME280;51055;59.436;24.778;2023-08-07T07:23:37;100073.16;;;28.52;72.59
40908;BME280;51055;59.436;24.778;2023-08-07T07:26:05;100073.81;;;28.64;71.83
40908;BME280;51055;59.436;24.778;2023-08-07T07:28:33;100060.81;;;28.92;69.53
40908;BME280;51055;59.436;24.778;2023-08-07T07:31:00;100063.91;;;29.01;70.03
40908;BME280;51055;59.436;24.778;2023-08-07T07:33:28;100065.56;;;29.02;68.64
40908;BME280;51055;59.436;24.778;2023-08-07T07:35:56;100049.84;;;28.87;68.05
40908;BME280;51055;59.436;24.778;2023-08-07T07:38:24;100058.22;;;29.08;67.48
40908;BME280;51055;59.436;24.778;2023-08-07T07:40:53;100046.78;;;29.11;68.05
40908;BME280;51055;59.436;24.778;2023-08-07T07:43:24;100048.97;;;29.09;67.01
40908;BME280;51055;59.436;24.778;2023-08-07T07:45:51;100059.56;;;29.32;66.38
40908;BME280;51055;59.436;24.778;2023-08-07T07:48:19;100058.00;;;29.41;66.19
40908;BME280;51055;59.436;24.778;2023-08-07T07:50:46;100052.28;;;29.42;66.67
40908;BME280;51055;59.436;24.778;2023-08-07T07:53:14;100043.84;;;29.44;65.90
40908;BME280;51055;59.436;24.778;2023-08-07T07:55:46;100041.41;;;29.48;66.20
40908;BME280;51055;59.436;24.778;2023-08-07T07:58:14;100027.66;;;29.37;66.60
40908;BME280;51055;59.436;24.778;2023-08-07T08:00:41;100046.38;;;29.56;66.07
40908;BME280;51055;59.436;24.778;2023-08-07T08:03:09;100037.88;;;29.52;65.03
40908;BME280;51055;59.436;24.778;2023-08-07T08:05:37;100030.50;;;29.53;64.73
40908;BME280;51055;59.436;24.778;2023-08-07T08:08:07;100033.81;;;29.60;65.09
40908;BME280;51055;59.436;24.778;2023-08-07T08:10:35;100028.34;;;29.55;65.37
40908;BME280;51055;59.436;24.778;2023-08-07T08:13:03;100017.19;;;29.66;64.98
40908;BME280;51055;59.436;24.778;2023-08-07T08:15:31;100023.09;;;29.48;65.07
40908;BME280;51055;59.436;24.778;2023-08-07T08:17:59;100025.53;;;29.44;65.30
40908;BME280;51055;59.436;24.778;2023-08-07T08:20:27;100020.06;;;29.44;65.71
40908;BME280;51055;59.436;24.778;2023-08-07T08:22:54;100033.91;;;29.33;65.73
40908;BME280;51055;59.436;24.778;2023-08-07T08:25:22;100015.03;;;29.31;64.70
40908;BME280;51055;59.436;24.778;2023-08-07T08:27:50;99997.53;;;29.32;64.54
40908;BME280;51055;59.436;24.778;2023-08-07T08:30:18;100016.44;;;29.39;63.99
40908;BME280;51055;59.436;24.778;2023-08-07T08:32:46;100007.94;;;29.30;65.36
40908;BME280;51055;59.436;24.778;2023-08-07T08:35:14;100023.03;;;29.43;64.56
40908;BME280;51055;59.436;24.778;2023-08-07T08:37:41;100011.78;;;29.34;65.22
40908;BME280;51055;59.436;24.778;2023-08-07T08:40:09;100015.63;;;29.38;64.87
40908;BME280;51055;59.436;24.778;2023-08-07T08:42:44;100020.28;;;29.38;63.89
40908;BME280;51055;59.436;24.778;2023-08-07T08:45:14;100008.31;;;29.44;64.31
40908;BME280;51055;59.436;24.778;2023-08-07T08:47:42;100009.94;;;29.45;63.51
40908;BME280;51055;59.436;24.778;2023-08-07T08:50:14;100017.63;;;29.48;64.05
40908;BME280;51055;59.436;24.778;2023-08-07T08:52:44;100015.78;;;29.59;63.75
40908;BME280;51055;59.436;24.778;2023-08-07T08:55:13;100015.75;;;29.54;64.69
40908;BME280;51055;59.436;24.778;2023-08-07T08:57:41;100010.06;;;29.60;62.11
40908;BME280;51055;59.436;24.778;2023-08-07T09:00:10;100004.53;;;29.55;62.41
40908;BME280;51055;59.436;24.778;2023-08-07T09:02:45;99995.19;;;29.46;64.09
40908;BME280;51055;59.436;24.778;2023-08-07T09:05:14;100009.81;;;29.67;62.20
40908;BME280;51055;59.436;24.778;2023-08-07T09:07:43;99993.38;;;29.62;63.03
40908;BME280;51055;59.436;24.778;2023-08-07T09:10:14;99991.53;;;29.67;62.35
40908;BME280;51055;59.436;24.778;2023-08-07T09:12:49;100000.19;;;29.54;62.12
40908;BME280;51055;59.436;24.778;2023-08-07T09:15:19;99980.53;;;29.57;62.22
40908;BME280;51055;59.436;24.778;2023-08-07T09:17:48;99983.03;;;29.69;61.45
40908;BME280;51055;59.436;24.778;2023-08-07T09:20:17;99989.56;;;29.63;61.80
40908;BME280;51055;59.436;24.778;2023-08-07T09:22:45;99984.09;;;29.58;63.09
40908;BME280;51055;59.436;24.778;2023-08-07T09:25:14;99981.84;;;29.50;63.82
40908;BME280;51055;59.436;24.778;2023-08-07T09:27:42;99973.47;;;29.66;61.88
40908;BME280;51055;59.436;24.778;2023-08-07T09:30:10;99979.47;;;29.68;61.88
40908;BME280;51055;59.436;24.778;2023-08-07T09:32:39;99969.13;;;29.75;62.26
40908;BME280;51055;59.436;24.778;2023-08-07T09:35:07;99962.59;;;29.81;60.67
40908;BME280;51055;59.436;24.778;2023-08-07T09:37:36;99968.06;;;29.81;60.06
40908;BME280;51055;59.436;24.778;2023-08-07T09:40:05;99968.97;;;29.92;59.75
40908;BME280;51055;59.436;24.778;2023-08-07T09:42:35;99956.06;;;29.82;59.44
40908;BME280;51055;59.436;24.778;2023-08-07T09:45:19;99948.91;;;29.76;61.41
40908;BME280;51055;59.436;24.778;2023-08-07T09:48:00;99963.25;;;29.93;58.43
40908;BME280;51055;59.436;24.778;2023-08-07T09:50:29;99947.34;;;29.85;58.60
40908;BME280;51055;59.436;24.778;2023-08-07T09:52:57;99969.56;;;29.99;58.33
40908;BME280;51055;59.436;24.778;2023-08-07T09:55:26;99949.28;;;29.90;58.86
40908;BME280;51055;59.436;24.778;2023-08-07T09:57:54;99945.69;;;29.84;59.22
40908;BME280;51055;59.436;24.778;2023-08-07T10:00:22;99949.03;;;29.96;59.08
40908;BME280;51055;59.436;24.778;2023-08-07T10:02:50;99953.19;;;30.09;58.31
40908;BME280;51055;59.436;24.778;2023-08-07T10:05:18;99956.50;;;30.16;57.11
40908;BME280;51055;59.436;24.778;2023-08-07T10:07:46;99981.41;;;30.20;56.89
40908;BME280;51055;59.436;24.778;2023-08-07T10:10:15;99959.22;;;30.11;56.77
40908;BME280;51055;59.436;24.778;2023-08-07T10:12:43;99953.19;;;30.09;57.17
40908;BME280;51055;59.436;24.778;2023-08-07T10:15:14;99946.41;;;30.22;57.88
40908;BME280;51055;59.436;24.778;2023-08-07T10:17:42;99937.66;;;30.20;58.11
40908;BME280;51055;59.436;24.778;2023-08-07T10:20:11;99936.00;;;30.24;58.10
40908;BME280;51055;59.436;24.778;2023-08-07T10:22:40;99931.91;;;30.26;57.50
40908;BME280;51055;59.436;24.778;2023-08-07T10:25:09;99945.84;;;30.25;57.38
40908;BME280;51055;59.436;24.778;2023-08-07T10:27:40;99950.75;;;30.18;57.75
40908;BME280;51055;59.436;24.778;2023-08-07T10:30:12;99942.84;;;30.16;56.14
40908;BME280;51055;59.436;24.778;2023-08-07T10:32:43;99925.06;;;30.24;55.73
40908;BME280;51055;59.436;24.778;2023-08-07T10:35:30;99931.09;;;30.26;55.88
40908;BME280;51055;59.436;24.778;2023-08-07T10:38:06;99925.09;;;30.29;55.35
40908;BME280;51055;59.436;24.778;2023-08-07T10:43:25;99918.50;;;30.25;55.34
40908;BME280;51055;59.436;24.778;2023-08-07T10:46:05;99919.03;;;30.22;55.76
40908;BME280;51055;59.436;24.778;2023-08-07T10:48:39;99926.16;;;30.28;54.39
40908;BME280;51055;59.436;24.778;2023-08-07T10:51:07;99926.16;;;30.23;54.54
40908;BME280;51055;59.436;24.778;2023-08-07T10:53:35;99923.16;;;30.29;53.87
40908;BME280;51055;59.436;24.778;2023-08-07T10:56:04;99930.56;;;30.34;54.46
40908;BME280;51055;59.436;24.778;2023-08-07T10:58:38;99921.81;;;30.37;54.22
40908;BME280;51055;59.436;24.778;2023-08-07T11:03:59;99908.66;;;30.29;54.15
40908;BME280;51055;59.436;24.778;2023-08-07T11:06:33;99922.06;;;30.30;53.35
40908;BME280;51055;59.436;24.778;2023-08-07T11:09:03;99910.84;;;30.37;53.92
40908;BME280;51055;59.436;24.778;2023-08-07T11:11:48;99914.97;;;30.29;52.77
40908;BME280;51055;59.436;24.778;2023-08-07T11:14:18;99913.84;;;30.30;52.94
40908;BME280;51055;59.436;24.778;2023-08-07T11:16:47;99921.25;;;30.35;53.46
40908;BME280;51055;59.436;24.778;2023-08-07T11:19:16;99927.88;;;30.44;52.84
40908;BME280;51055;59.436;24.778;2023-08-07T11:21:45;99918.81;;;30.38;52.55
40908;BME280;51055;59.436;24.778;2023-08-07T11:24:14;99907.03;;;30.38;52.83
40908;BME280;51055;59.436;24.778;2023-08-07T11:26:46;99899.13;;;30.46;54.13
40908;BME280;51055;59.436;24.778;2023-08-07T11:29:20;99898.88;;;30.48;54.16
40908;BME280;51055;59.436;24.778;2023-08-07T11:31:48;99924.28;;;30.38;54.28
40908;BME280;51055;59.436;24.778;2023-08-07T11:34:17;99898.81;;;30.38;53.79
40908;BME280;51055;59.436;24.778;2023-08-07T11:36:46;99915.25;;;30.38;53.83
40908;BME280;51055;59.436;24.778;2023-08-07T11:39:14;99897.47;;;30.35;54.09
40908;BME280;51055;59.436;24.778;2023-08-07T11:41:41;99892.25;;;30.34;54.48
40908;BME280;51055;59.436;24.778;2023-08-07T11:44:10;99877.72;;;30.33;54.55
40908;BME280;51055;59.436;24.778;2023-08-07T11:46:38;99884.06;;;30.39;54.88
40908;BME280;51055;59.436;24.778;2023-08-07T11:49:07;99886.84;;;30.49;54.41
40908;BME280;51055;59.436;24.778;2023-08-07T11:51:35;99896.41;;;30.46;53.83
40908;BME280;51055;59.436;24.778;2023-08-07T11:54:03;99882.69;;;30.36;54.56
40908;BME280;51055;59.436;24.778;2023-08-07T11:56:30;99885.41;;;30.31;53.90
40908;BME280;51055;59.436;24.778;2023-08-07T11:58:58;99888.16;;;30.36;54.08
40908;BME280;51055;59.436;24.778;2023-08-07T12:01:26;99881.88;;;30.41;54.10
40908;BME280;51055;59.436;24.778;2023-08-07T12:06:38;99875.59;;;30.40;54.41
40908;BME280;51055;59.436;24.778;2023-08-07T12:09:11;99877.22;;;30.46;54.43
40908;BME280;51055;59.436;24.778;2023-08-07T12:11:40;99872.31;;;30.43;54.56
40908;BME280;51055;59.436;24.778;2023-08-07T12:14:13;99871.78;;;30.52;53.96
40908;BME280;51055;59.436;24.778;2023-08-07T12:16:45;99857.81;;;30.48;53.73
40908;BME280;51055;59.436;24.778;2023-08-07T12:19:13;99848.50;;;30.44;54.38
40908;BME280;51055;59.436;24.778;2023-08-07T12:21:42;99854.81;;;30.44;53.49
40908;BME280;51055;59.436;24.778;2023-08-07T12:24:12;99849.06;;;30.46;52.78
40908;BME280;51055;59.436;24.778;2023-08-07T12:26:40;99846.00;;;30.37;52.69
40908;BME280;51055;59.436;24.778;2023-08-07T12:29:08;99838.91;;;30.46;53.11
40908;BME280;51055;59.436;24.778;2023-08-07T12:31:36;99849.31;;;30.39;53.40
40908;BME280;51055;59.436;24.778;2023-08-07T12:34:06;99848.78;;;30.47;52.96
40908;BME280;51055;59.436;24.778;2023-08-07T12:36:39;99848.81;;;30.53;52.09
40908;BME280;51055;59.436;24.778;2023-08-07T12:39:06;99844.66;;;30.50;51.65
40908;BME280;51055;59.436;24.778;2023-08-07T12:41:34;99839.19;;;30.50;52.38
40908;BME280;51055;59.436;24.778;2023-08-07T12:44:05;99845.25;;;30.52;52.71
40908;BME280;51055;59.436;24.778;2023-08-07T12:46:33;99847.69;;;30.54;51.13
40908;BME280;51055;59.436;24.778;2023-08-07T12:49:04;99864.69;;;30.56;51.50
40908;BME280;51055;59.436;24.778;2023-08-07T12:51:32;99834.56;;;30.56;51.15
40908;BME280;51055;59.436;24.778;2023-08-07T12:54:00;99824.72;;;30.50;50.78
40908;BME280;51055;59.436;24.778;2023-08-07T12:56:27;99829.38;;;30.49;50.70